Time;durP1;ratioP1;P1;durP2;ratioP2;P2;SDS_P1;SDS_P2;PMS_P1;PMS_P2;Temp;Humidity;BMP_temperature;BMP_pressure;BME280_temperature;BME280_humidity;BME280_pressure;Samples;Min_cycle;Max_cycle;Signal;HPM_P1;HPM_P2
2023/07/25 00:01:05;;;;;;;5.60;4.50;;;15.50;99.90;;;;;;6280433;22;20461;-88
2023/07/25 00:03:32;;;;;;;6.10;5.50;;;;;;;;;;6280659;22;20428;-89
2023/07/25 00:06:01;;;;;;;7.70;5.10;;;16.00;99.90;;;;;;6279754;22;20421;-89
2023/07/25 00:08:28;;;;;;;7.17;4.80;;;;;;;;;;6279886;22;20430;-89
2023/07/25 00:10:55;;;;;;;11.00;5.20;;;;;;;;;;6282047;22;20393;-87
2023/07/25 00:13:22;;;;;;;4.77;4.27;;;;;;;;;;6279881;22;20409;-88
2023/07/25 00:15:54;;;;;;;6.53;4.77;;;15.90;99.90;;;;;;6282270;22;20444;-89
2023/07/25 00:18:22;;;;;;;5.50;5.00;;;;;;;;;;6280757;22;20523;-90
2023/07/25 00:20:49;;;;;;;4.73;4.33;;;;;;;;;;6280001;22;20400;-89
2023/07/25 00:23:16;;;;;;;4.83;4.30;;;15.60;99.90;;;;;;6281336;22;20512;-88
2023/07/25 00:25:44;;;;;;;7.07;4.13;;;15.60;99.90;;;;;;6254410;22;20413;-89
2023/07/25 00:28:10;;;;;;;5.03;3.53;;;15.90;99.90;;;;;;6281499;22;20456;-89
2023/07/25 00:30:39;;;;;;;4.60;3.80;;;15.60;99.90;;;;;;6298413;22;20400;-87
2023/07/25 00:33:07;;;;;;;4.97;4.23;;;16.20;99.90;;;;;;6306922;22;20439;-87
2023/07/25 00:35:34;;;;;;;3.93;3.63;;;16.90;99.90;;;;;;6293797;22;20440;-89
2023/07/25 00:38:03;;;;;;;5.20;4.70;;;15.70;99.90;;;;;;6281253;22;20463;-89
2023/07/25 00:40:39;;;;;;;4.40;3.90;;;15.90;99.90;;;;;;6282086;22;20722;-89
2023/07/25 00:43:06;;;;;;;4.53;4.23;;;16.10;99.90;;;;;;6281081;22;20435;-89
2023/07/25 00:45:33;;;;;;;5.23;4.23;;;;;;;;;;6281340;22;20401;-89
2023/07/25 00:48:01;;;;;;;5.53;4.00;;;;;;;;;;6280949;22;20417;-89
2023/07/25 00:50:30;;;;;;;5.90;4.67;;;15.80;99.90;;;;;;6281140;22;20933;-89
2023/07/25 00:52:58;;;;;;;5.93;4.57;;;;;;;;;;6281249;22;20449;-89
2023/07/25 00:55:25;;;;;;;4.77;4.37;;;;;;;;;;6283117;22;20433;-89
2023/07/25 00:57:53;;;;;;;14.63;4.07;;;;;;;;;;6280951;22;20405;-89
2023/07/25 01:00:20;;;;;;;6.40;4.23;;;15.80;99.90;;;;;;6280842;22;20449;-89
2023/07/25 01:02:46;;;;;;;4.57;4.17;;;15.70;99.90;;;;;;6281695;22;20437;-89
2023/07/25 01:05:14;;;;;;;4.30;3.93;;;;;;;;;;6290904;22;20448;-89
2023/07/25 01:07:44;;;;;;;5.07;4.57;;;15.90;99.90;;;;;;6295928;22;20402;-89
2023/07/25 01:10:11;;;;;;;6.30;4.50;;;;;;;;;;6290822;22;20418;-89
2023/07/25 01:12:38;;;;;;;5.60;4.33;;;;;;;;;;6305001;22;20426;-88
2023/07/25 01:15:05;;;;;;;5.03;4.63;;;;;;;;;;6306683;22;20427;-87
2023/07/25 01:17:33;;;;;;;4.37;3.97;;;;;;;;;;6306908;22;20413;-88
2023/07/25 01:20:31;;;;;;;4.70;4.40;;;;;;;;;;6300166;22;20406;-92
2023/07/25 01:27:24;;;;;;;8.33;4.47;;;16.00;99.90;;;;;;6271223;22;20399;-92
2023/07/25 01:30:00;;;;;;;7.67;4.50;;;;;;;;;;6209536;22;20401;-91
2023/07/25 01:32:53;;;;;;;6.23;5.67;;;;;;;;;;6293465;22;20411;-92
2023/07/25 01:35:54;;;;;;;5.70;5.10;;;;;;;;;;6299830;22;20493;-92
2023/07/25 01:38:22;;;;;;;4.97;4.27;;;;;;;;;;6292155;22;20451;-92
2023/07/25 01:40:59;;;;;;;6.60;4.67;;;;;;;;;;6288324;22;20414;-91
2023/07/25 01:43:41;;;;;;;6.67;4.70;;;;;;;;;;6288250;22;20436;-92
2023/07/25 01:46:12;;;;;;;6.13;5.53;;;;;;;;;;6289024;22;20421;-92
2023/07/25 01:48:50;;;;;;;7.23;4.70;;;;;;;;;;6299359;22;20488;-91
2023/07/25 01:51:20;;;;;;;6.00;5.40;;;;;;;;;;6301820;22;20396;-92
2023/07/25 01:56:48;;;;;;;5.60;4.50;;;;;;;;;;6282776;22;20402;-92
2023/07/25 01:59:33;;;;;;;6.10;5.50;;;;;;;;;;6289919;22;20404;-91
2023/07/25 02:02:11;;;;;;;10.30;5.97;;;;;;;;;;6287900;22;20382;-92
2023/07/25 02:04:59;;;;;;;9.37;5.23;;;;;;;;;;6288242;22;20401;-92
2023/07/25 02:23:27;;;;;;;6.83;6.13;;;16.10;99.90;;;;;;6080667;23;20522;-92
2023/07/25 02:29:15;;;;;;;6.60;5.50;;;;;;;;;;6298434;22;20387;-92
2023/07/25 02:34:30;;;;;;;9.60;7.77;;;;;;;;;;6301138;22;20444;-89
2023/07/25 02:43:22;;;;;;;8.30;6.30;;;;;;;;;;6208159;23;20416;-91
2023/07/25 02:45:55;;;;;;;12.07;7.33;;;;;;;;;;6277996;22;20453;-89
2023/07/25 02:48:25;;;;;;;7.73;6.93;;;;;;;;;;6285269;22;20427;-90
2023/07/25 02:50:57;;;;;;;8.23;6.23;;;;;;;;;;6280887;22;20410;-89
2023/07/25 02:53:28;;;;;;;9.37;6.20;;;15.90;99.90;;;;;;6280555;22;20924;-90
2023/07/25 02:55:55;;;;;;;6.97;5.93;;;;;;;;;;6279893;22;20450;-89
2023/07/25 02:58:38;;;;;;;9.47;6.87;;;;;;;;;;6280856;22;20412;-89
2023/07/25 03:01:13;;;;;;;7.40;5.83;;;;;;;;;;6280334;22;20418;-91
2023/07/25 03:10:07;;;;;;;9.43;6.97;;;16.10;99.90;;;;;;6269850;22;20513;-90
2023/07/25 03:12:54;;;;;;;9.50;6.93;;;;;;;;;;6260862;22;20436;-91
2023/07/25 03:15:24;;;;;;;8.07;6.40;;;;;;;;;;6289526;22;20441;-89
2023/07/25 03:20:46;;;;;;;8.37;7.43;;;;;;;;;;6302506;22;20397;-87
2023/07/25 03:36:29;;;;;;;8.63;5.80;;;16.00;99.90;;;;;;6280078;22;20449;-90
2023/07/25 04:37:40;;;;;;;6.17;5.57;;;;;;;;;;6010422;23;20387;-89
2023/07/25 05:22:13;;;;;;;5.17;4.77;;;;;;;;;;6251464;22;20431;-88
2023/07/25 05:24:40;;;;;;;6.90;5.13;;;;;;;;;;6268202;22;20442;-87
2023/07/25 05:30:42;;;;;;;6.47;5.80;;;;;;;;;;6249919;22;20397;-90
2023/07/25 05:33:16;;;;;;;6.77;4.80;;;16.10;1.00;;;;;;6260534;23;20410;-90
2023/07/25 05:42:02;;;;;;;6.93;5.47;;;;;;;;;;6196378;23;20455;-89
2023/07/25 05:44:40;;;;;;;9.70;5.10;;;;;;;;;;6193671;23;20416;-88
2023/07/25 05:47:27;;;;;;;7.13;4.53;;;16.30;99.90;;;;;;6260355;23;20473;-89
2023/07/25 05:49:58;;;;;;;4.87;3.60;;;;;;;;;;6252858;22;20403;-89
2023/07/25 05:58:48;;;;;;;5.00;4.53;;;;;;;;;;6257379;22;20382;-90
2023/07/25 06:14:06;;;;;;;7.80;3.57;;;16.30;1.00;;;;;;6221575;22;20790;-90
2023/07/25 06:26:56;;;;;;;;;;;;;;;;;;;;;
2023/07/25 06:33:58;;;;;;;6.13;4.27;;;16.60;1.00;;;;;;6185516;23;20410;-91
2023/07/25 06:52:51;;;;;;;7.63;3.30;;;;;;;;;;6250481;23;20415;-90
2023/07/25 06:55:59;;;;;;;6.30;3.20;;;;;;;;;;6250522;22;20481;-90
2023/07/25 06:58:26;;;;;;;4.70;2.80;;;;;;;;;;6248539;22;20508;-90
2023/07/25 07:01:20;;;;;;;5.30;3.20;;;17.20;99.90;;;;;;6248404;23;20401;-90
2023/07/25 07:03:54;;;;;;;5.47;3.93;;;;;;;;;;6249582;23;20411;-90
2023/07/25 07:06:35;;;;;;;6.63;3.70;;;;;;;;;;6252635;22;20472;-90
2023/07/25 07:11:59;;;;;;;6.97;4.90;;;;;;;;;;6253268;23;20392;-90
2023/07/25 07:14:30;;;;;;;5.23;3.50;;;;;;;;;;6251521;22;20876;-90
2023/07/25 07:20:04;;;;;;;;;;;;;;;;;;;;;
2023/07/25 07:22:43;;;;;;;5.87;2.90;;;;;;;;;;6258544;23;20399;-91
2023/07/25 07:25:38;;;;;;;;;;;;;;;;;;;;;
2023/07/25 07:32:04;;;;;;;4.00;3.47;;;17.70;99.90;;;;;;6221262;22;20382;-88
2023/07/25 07:41:44;;;;;;;3.27;3.00;;;17.90;8.50;;;;;;6213386;23;20425;-89
2023/07/25 07:50:32;;;;;;;;;;;;;;;;;;;;;
2023/07/25 08:21:57;;;;;;;4.03;3.70;;;;;;;;;;6252306;22;20961;-89
2023/07/25 08:24:25;;;;;;;4.20;3.20;;;;;;;;;;6290389;22;20416;-89
2023/07/25 08:26:55;;;;;;;2.40;2.20;;;;;;;;;;6302325;22;20415;-89
2023/07/25 08:29:23;;;;;;;4.50;3.00;;;;;;;;;;6305006;22;20397;-89
2023/07/25 08:31:50;;;;;;;4.23;2.40;;;;;;;;;;6304775;22;20403;-89
2023/07/25 08:34:20;;;;;;;6.13;2.70;;;;;;;;;;6304284;22;20430;-89
2023/07/25 08:36:51;;;;;;;4.07;3.13;;;;;;;;;;6290109;22;20452;-90
2023/07/25 08:39:22;;;;;;;3.93;2.60;;;18.70;1.00;;;;;;6300291;22;20416;-90
2023/07/25 08:41:54;;;;;;;4.97;2.47;;;18.80;1.00;;;;;;6297917;22;20746;-91
2023/07/25 08:44:24;;;;;;;3.13;2.10;;;18.70;1.00;;;;;;6297582;22;20370;-90
2023/07/25 08:46:56;;;;;;;5.10;2.07;;;18.70;1.00;;;;;;6287019;22;20420;-90
2023/07/25 08:49:25;;;;;;;3.43;2.90;;;19.30;1.00;;;;;;6284233;22;20374;-90
2023/07/25 08:51:53;;;;;;;3.67;2.73;;;;;;;;;;6283156;22;20423;-90
2023/07/25 08:54:29;;;;;;;2.50;1.93;;;18.90;1.00;;;;;;6283547;22;20412;-90
2023/07/25 08:56:58;;;;;;;2.10;1.90;;;;;;;;;;6284613;22;20841;-90
2023/07/25 08:59:25;;;;;;;5.90;1.90;;;;;;;;;;6283646;22;20404;-90
2023/07/25 09:01:53;;;;;;;4.20;2.50;;;;;;;;;;6282755;22;20495;-90
2023/07/25 09:04:21;;;;;;;4.80;2.90;;;;;;;;;;6283221;22;20491;-90
2023/07/25 09:06:48;;;;;;;2.67;2.47;;;;;;;;;;6282525;22;20524;-90
2023/07/25 09:09:19;;;;;;;2.10;2.00;;;;;;;;;;6283464;22;20821;-90
2023/07/25 09:11:47;;;;;;;4.90;2.17;;;19.30;1.00;;;;;;6283534;22;20440;-90
2023/07/25 09:14:15;;;;;;;5.00;1.80;;;;;;;;;;6283776;22;20464;-89
2023/07/25 09:16:48;;;;;;;2.37;1.80;;;;;;;;;;6283126;22;20537;-90
2023/07/25 09:19:15;;;;;;;2.77;2.50;;;;;;;;;;6293731;22;20401;-90
2023/07/25 09:21:49;;;;;;;3.23;2.00;;;;;;;;;;6290693;22;20411;-90
2023/07/25 09:24:17;;;;;;;2.57;2.10;;;;;;;;;;6283617;22;20419;-90
2023/07/25 09:26:51;;;;;;;3.20;2.50;;;19.40;1.00;;;;;;6283030;22;20458;-90
2023/07/25 09:29:20;;;;;;;4.70;2.10;;;;;;;;;;6284313;22;20449;-90
2023/07/25 09:31:48;;;;;;;3.37;2.40;;;;;;;;;;6282345;22;20422;-90
2023/07/25 09:34:23;;;;;;;5.87;2.00;;;19.30;1.00;;;;;;6282677;22;20741;-90
2023/07/25 09:36:51;;;;;;;4.17;2.80;;;;;;;;;;6283635;22;20470;-90
2023/07/25 09:39:22;;;;;;;2.67;2.10;;;;;;;;;;6283272;22;20393;-90
2023/07/25 09:41:51;;;;;;;7.50;2.40;;;19.20;1.00;;;;;;6282785;22;20388;-90
2023/07/25 09:44:19;;;;;;;4.23;2.73;;;;;;;;;;6282785;22;20436;-90
2023/07/25 09:46:54;;;;;;;5.07;2.07;;;19.20;1.00;;;;;;6282431;22;20417;-89
2023/07/25 09:49:23;;;;;;;6.13;2.73;;;;;;;;;;6282822;22;20427;-90
2023/07/25 09:51:58;;;;;;;6.40;2.17;;;;;;;;;;6282711;22;20412;-90
2023/07/25 09:54:26;;;;;;;2.13;1.77;;;;;;;;;;6284165;22;20908;-91
2023/07/25 09:56:54;;;;;;;8.83;2.77;;;;;;;;;;6284427;22;20440;-90
2023/07/25 09:59:22;;;;;;;2.13;1.90;;;19.30;1.00;;;;;;6284742;22;20467;-90
2023/07/25 10:01:50;;;;;;;1.80;1.70;;;;;;;;;;6283170;22;20400;-90
2023/07/25 10:04:18;;;;;;;6.33;2.33;;;19.50;1.00;;;;;;6284415;22;20396;-90
2023/07/25 10:06:48;;;;;;;3.97;2.10;;;20.70;1.00;;;;;;6282267;22;20428;-90
2023/07/25 10:09:18;;;;;;;2.80;2.30;;;19.60;1.00;;;;;;6282972;22;20901;-89
2023/07/25 10:11:47;;;;;;;2.07;1.80;;;19.60;1.00;;;;;;6297974;22;20398;-91
2023/07/25 10:14:21;;;;;;;5.23;2.70;;;19.70;1.00;;;;;;6283516;22;20420;-90
2023/07/25 10:16:50;;;;;;;1.97;1.60;;;;;;;;;;6283322;22;20440;-89
2023/07/25 10:19:19;;;;;;;8.13;2.40;;;;;;;;;;6299297;22;20436;-90
2023/07/25 10:21:50;;;;;;;5.67;4.33;;;19.90;1.00;;;;;;6285877;22;20417;-90
2023/07/25 10:24:20;;;;;;;11.50;5.63;;;;;;;;;;6293079;22;20409;-89
2023/07/25 10:26:59;;;;;;;4.57;2.67;;;;;;;;;;6302995;22;20435;-89
2023/07/25 10:29:47;;;;;;;2.50;2.30;;;20.00;1.00;;;;;;6296015;22;20492;-89
2023/07/25 10:32:16;;;;;;;4.27;2.30;;;20.20;1.00;;;;;;6301332;22;20416;-88
2023/07/25 10:34:53;;;;;;;3.30;2.00;;;20.10;1.00;;;;;;6293159;22;20412;-89
2023/07/25 10:37:24;;;;;;;4.80;2.20;;;;;;;;;;6290039;22;20486;-90
2023/07/25 10:40:11;;;;;;;2.80;2.00;;;20.00;1.00;;;;;;6294716;22;20393;-89
2023/07/25 10:42:59;;;;;;;2.90;2.30;;;19.90;1.00;;;;;;6297113;22;20427;-89
2023/07/25 10:45:54;;;;;;;2.97;2.77;;;;;;;;;;6277716;22;20425;-89
2023/07/25 10:48:43;;;;;;;2.83;2.23;;;20.10;1.00;;;;;;6284068;22;20693;-89
2023/07/25 10:51:12;;;;;;;3.93;2.60;;;;;;;;;;6283632;22;20404;-89
2023/07/25 10:53:40;;;;;;;2.10;1.77;;;;;;;;;;6283972;22;20488;-89
2023/07/25 10:56:15;;;;;;;3.77;2.00;;;20.50;1.00;;;;;;6282788;22;20954;-89
2023/07/25 10:59:11;;;;;;;2.60;1.80;;;20.60;1.00;;;;;;6283137;22;20450;-89
2023/07/25 11:01:48;;;;;;;3.50;3.20;;;;;;;;;;6283690;22;20424;-89
2023/07/25 11:04:26;;;;;;;4.37;2.27;;;;;;;;;;6282771;22;20847;-89
2023/07/25 11:06:54;;;;;;;3.00;2.80;;;;;;;;;;6291265;22;20439;-89
2023/07/25 11:09:26;;;;;;;4.47;2.20;;;;;;;;;;6296680;22;20439;-89
2023/07/25 11:11:55;;;;;;;2.70;2.43;;;20.50;1.00;;;;;;6288260;22;20421;-89
2023/07/25 11:14:23;;;;;;;4.33;2.20;;;;;;;;;;6285260;22;20879;-91
2023/07/25 11:17:33;;;;;;;2.83;2.13;;;20.80;1.00;;;;;;6286266;22;20439;-90
2023/07/25 11:20:13;;;;;;;3.43;2.10;;;;;;;;;;6257677;22;20408;-90
2023/07/25 11:22:41;;;;;;;2.00;1.80;;;;;;;;;;6288111;22;20389;-90
2023/07/25 11:25:09;;;;;;;4.00;2.57;;;;;;;;;;6294511;22;20450;-89
2023/07/25 11:27:39;;;;;;;3.10;2.40;;;;;;;;;;6290686;22;20407;-90
2023/07/25 11:30:20;;;;;;;3.83;2.57;;;;;;;;;;6284807;22;20396;-90
2023/07/25 11:32:54;;;;;;;2.30;2.20;;;20.10;1.00;;;;;;6295631;22;20388;-89
2023/07/25 11:35:29;;;;;;;2.93;2.20;;;;;;;;;;6302334;22;20451;-88
2023/07/25 11:38:13;;;;;;;3.13;2.20;;;19.60;1.00;;;;;;6305347;22;20444;-89
2023/07/25 11:40:41;;;;;;;5.13;2.67;;;;;;;;;;6299420;22;20400;-90
2023/07/25 11:46:08;;;;;;;6.43;4.17;;;;;;;;;;6289295;22;20431;-90
2023/07/25 11:48:38;;;;;;;4.13;3.07;;;;;;;;;;6301000;22;20411;-90
2023/07/25 11:51:11;;;;;;;10.10;2.50;;;;;;;;;;6294663;22;20407;-90
2023/07/25 11:53:40;;;;;;;3.37;2.73;;;;;;;;;;6292024;22;20439;-91
2023/07/25 11:56:12;;;;;;;2.53;2.20;;;;;;;;;;6288775;22;20455;-91
2023/07/25 11:58:52;;;;;;;5.30;3.00;;;;;;;;;;6288543;22;20444;-91
2023/07/25 12:01:31;;;;;;;2.47;2.27;;;20.00;1.00;;;;;;6286510;22;20369;-91
2023/07/25 12:04:03;;;;;;;5.17;2.90;;;;;;;;;;6288502;22;20436;-91
2023/07/25 12:06:37;;;;;;;6.73;2.23;;;20.30;1.00;;;;;;6295942;22;20458;-90
2023/07/25 12:09:05;;;;;;;2.43;2.23;;;;;;;;;;6293740;22;20412;-90
2023/07/25 12:11:33;;;;;;;6.13;2.63;;;;;;;;;;6288103;22;20903;-90
2023/07/25 12:14:09;;;;;;;2.63;2.30;;;;;;;;;;6288163;22;20475;-90
2023/07/25 12:16:42;;;;;;;6.27;2.40;;;;;;;;;;6285810;22;20466;-90
2023/07/25 12:19:15;;;;;;;1.90;1.80;;;20.60;1.00;;;;;;6287943;22;20885;-90
2023/07/25 12:21:45;;;;;;;3.00;1.80;;;20.70;1.00;;;;;;6293841;22;20410;-90
2023/07/25 12:24:13;;;;;;;7.67;2.20;;;20.80;1.00;;;;;;6287986;22;20438;-90
2023/07/25 12:26:44;;;;;;;4.07;1.67;;;;;;;;;;6288232;22;20401;-90
2023/07/25 12:29:15;;;;;;;5.13;1.87;;;20.80;99.90;;;;;;6288260;22;20381;-90
2023/07/25 12:31:45;;;;;;;1.43;1.33;;;;;;;;;;6305219;22;20422;-89
2023/07/25 12:34:18;;;;;;;1.93;1.73;;;;;;;;;;6305941;22;20407;-89
2023/07/25 12:36:47;;;;;;;2.60;1.57;;;;;;;;;;6289325;22;20447;-89
2023/07/25 12:39:15;;;;;;;3.27;1.47;;;;;;;;;;6299338;22;20480;-89
2023/07/25 12:41:47;;;;;;;3.57;2.53;;;;;;;;;;6305173;22;20406;-88
2023/07/25 12:44:20;;;;;;;2.10;1.90;;;;;;;;;;6305800;22;20778;-90
2023/07/25 12:46:48;;;;;;;5.23;3.90;;;;;;;;;;6303224;22;20435;-90
2023/07/25 12:49:18;;;;;;;2.27;2.07;;;;;;;;;;6294682;22;20416;-90
2023/07/25 12:51:52;;;;;;;3.80;1.83;;;;;;;;;;6298176;22;20443;-90
2023/07/25 12:54:19;;;;;;;3.67;1.93;;;;;;;;;;6291096;22;20399;-90
2023/07/25 12:56:49;;;;;;;4.57;2.50;;;;;;;;;;6285919;22;20409;-90
2023/07/25 12:59:17;;;;;;;3.67;2.07;;;;;;;;;;6286237;22;20510;-89
2023/07/25 13:01:44;;;;;;;2.60;2.27;;;;;;;;;;6286466;22;20389;-89
2023/07/25 13:04:12;;;;;;;4.77;2.30;;;;;;;;;;6285346;22;20412;-89
2023/07/25 13:06:39;;;;;;;2.50;2.27;;;;;;;;;;6286549;22;20483;-89
2023/07/25 13:09:09;;;;;;;3.87;2.07;;;;;;;;;;6285958;22;20401;-89
2023/07/25 13:11:36;;;;;;;2.20;2.10;;;;;;;;;;6287846;22;20518;-89
2023/07/25 13:14:03;;;;;;;4.87;2.53;;;;;;;;;;6288423;22;20411;-90
2023/07/25 13:16:31;;;;;;;5.13;2.70;;;;;;;;;;6290314;22;20421;-88
2023/07/25 13:19:01;;;;;;;2.67;1.83;;;;;;;;;;6291170;22;20437;-90
2023/07/25 13:21:28;;;;;;;7.30;2.50;;;;;;;;;;6292699;22;20476;-89
2023/07/25 13:23:55;;;;;;;4.73;2.47;;;;;;;;;;6292191;22;20409;-90
2023/07/25 13:26:29;;;;;;;4.73;2.30;;;;;;;;;;6286653;22;20436;-90
2023/07/25 13:28:56;;;;;;;1.90;1.80;;;;;;;;;;6286994;22;20449;-90
2023/07/25 13:31:25;;;;;;;2.20;2.00;;;;;;;;;;6289976;22;20949;-90
2023/07/25 13:33:53;;;;;;;2.23;2.00;;;;;;;;;;6288157;22;20427;-89
2023/07/25 13:36:21;;;;;;;6.03;2.60;;;;;;;;;;6288105;22;20452;-90
2023/07/25 13:38:49;;;;;;;4.03;2.47;;;;;;;;;;6299764;22;20474;-89
2023/07/25 13:41:20;;;;;;;6.30;2.63;;;;;;;;;;6305857;22;20398;-88
2023/07/25 13:43:49;;;;;;;2.57;2.37;;;;;;;;;;6302960;22;20464;-90
2023/07/25 13:46:17;;;;;;;8.50;4.13;;;;;;;;;;6288821;22;20441;-90
2023/07/25 13:48:50;;;;;;;4.90;2.80;;;;;;;;;;6287823;22;20425;-90
2023/07/25 13:51:24;;;;;;;2.47;2.27;;;;;;;;;;6287278;22;20769;-90
2023/07/25 13:53:51;;;;;;;2.50;2.27;;;;;;;;;;6286619;22;20385;-90
2023/07/25 13:56:20;;;;;;;3.10;2.17;;;;;;;;;;6287368;22;20432;-90
2023/07/25 13:58:49;;;;;;;4.97;2.93;;;;;;;;;;6291348;22;20428;-90
2023/07/25 14:01:16;;;;;;;2.30;2.10;;;;;;;;;;6287152;22;20478;-90
2023/07/25 14:03:44;;;;;;;2.50;2.30;;;;;;;;;;6287565;22;20503;-90
2023/07/25 14:06:12;;;;;;;5.00;2.87;;;;;;;;;;6286658;22;20600;-89
2023/07/25 14:08:46;;;;;;;3.67;2.40;;;;;;;;;;6286419;22;20436;-89
2023/07/25 14:11:14;;;;;;;2.40;2.20;;;;;;;;;;6286793;22;20408;-89
2023/07/25 14:13:43;;;;;;;3.53;2.23;;;21.40;99.90;;;;;;6286971;22;20739;-90
2023/07/25 14:16:13;;;;;;;4.03;2.83;;;;;;;;;;6294260;22;20539;-88
2023/07/25 14:18:44;;;;;;;2.70;2.30;;;;;;;;;;6300861;22;20462;-91
2023/07/25 14:21:11;;;;;;;1.90;1.80;;;;;;;;;;6293877;22;20392;-89
2023/07/25 14:23:39;;;;;;;2.97;2.30;;;;;;;;;;6289940;22;20922;-90
2023/07/25 14:26:09;;;;;;;3.30;2.40;;;;;;;;;;6293570;22;20457;-90
2023/07/25 14:28:36;;;;;;;4.30;2.73;;;;;;;;;;6289644;22;20416;-89
2023/07/25 14:31:13;;;;;;;5.90;2.30;;;21.50;99.90;;;;;;6299574;22;20401;-89
2023/07/25 14:33:46;;;;;;;3.13;1.80;;;;;;;;;;6294476;22;20419;-87
2023/07/25 14:36:26;;;;;;;4.37;2.83;;;;;;;;;;6301441;22;20454;-87
2023/07/25 14:39:03;;;;;;;4.93;3.07;;;;;;;;;;6305241;22;20476;-87
2023/07/25 14:41:36;;;;;;;3.07;2.10;;;;;;;;;;6293635;22;20392;-89
2023/07/25 14:44:13;;;;;;;5.80;2.10;;;;;;;;;;6290160;22;20412;-89
2023/07/25 14:50:14;;;;;;;2.03;1.83;;;21.40;99.90;;;;;;6279153;22;20401;-89
2023/07/25 14:53:11;;;;;;;;;;;;;;;;;;;;;
2023/07/25 14:55:44;;;;;;;5.50;2.30;;;;;;;;;;6281231;22;20415;-89
2023/07/25 14:58:11;;;;;;;3.30;1.90;;;;;;;;;;6280790;22;20824;-89
2023/07/25 15:00:49;;;;;;;3.13;2.33;;;;;;;;;;6279799;22;20423;-89
2023/07/25 15:03:30;;;;;;;6.33;2.10;;;;;;;;;;6284802;22;20407;-88
2023/07/25 15:06:16;;;;;;;3.20;1.87;;;;;;;;;;6284131;22;20490;-88
2023/07/25 15:21:14;;;;;;;7.03;2.20;;;21.20;99.90;;;;;;6224602;22;20401;-88
2023/07/25 15:34:48;;;;;;;4.60;2.90;;;21.50;99.90;;;;;;6264016;22;20381;-87
2023/07/25 15:37:47;;;;;;;;;;;;;;;;;;;;;
2023/07/25 15:53:40;;;;;;;3.53;2.30;;;21.80;99.90;;;;;;6274170;22;2000283;-90
2023/07/25 15:56:07;;;;;;;4.27;2.80;;;;;;;;;;6338695;22;20195;-90
2023/07/25 15:58:34;;;;;;;2.90;2.57;;;;;;;;;;6335862;22;20420;-90
2023/07/25 16:01:05;;;;;;;4.03;3.00;;;;;;;;;;6336147;22;20470;-90
2023/07/25 16:03:33;;;;;;;3.37;3.07;;;;;;;;;;6332154;22;20418;-90
2023/07/25 16:06:00;;;;;;;3.67;2.33;;;;;;;;;;6328429;22;20433;-89
2023/07/25 16:08:27;;;;;;;3.40;2.57;;;;;;;;;;6328336;22;20417;-89
2023/07/25 16:10:56;;;;;;;3.67;2.70;;;;;;;;;;6327647;22;20415;-90
2023/07/25 16:13:23;;;;;;;3.47;2.70;;;;;;;;;;6325185;22;20431;-90
2023/07/25 16:15:51;;;;;;;2.47;2.27;;;;;;;;;;6327274;22;20746;-90
2023/07/25 16:18:18;;;;;;;5.87;3.00;;;;;;;;;;6325861;22;20391;-90
2023/07/25 16:20:45;;;;;;;2.30;2.10;;;;;;;;;;6325471;22;20411;-90
2023/07/25 16:23:13;;;;;;;2.40;2.10;;;;;;;;;;6327773;22;20436;-90
2023/07/25 16:25:43;;;;;;;2.70;2.00;;;;;;;;;;6332119;22;20410;-89
2023/07/25 16:28:12;;;;;;;2.73;2.03;;;;;;;;;;6339080;22;20414;-89
2023/07/25 16:30:39;;;;;;;2.90;2.10;;;21.20;99.90;;;;;;6333227;22;20934;-89
2023/07/25 16:33:06;;;;;;;3.40;2.80;;;21.20;99.90;;;;;;6326502;22;20828;-89
2023/07/25 16:35:36;;;;;;;2.10;1.97;;;21.30;99.90;;;;;;6326704;22;20395;-90
2023/07/25 16:38:15;;;;;;;4.57;3.27;;;21.60;99.90;;;;;;6327940;22;20385;-90
2023/07/25 16:40:43;;;;;;;3.30;3.00;;;;;;;;;;6327498;22;20403;-90
2023/07/25 16:43:12;;;;;;;2.70;2.07;;;;;;;;;;6326193;22;20510;-90
2023/07/25 16:45:41;;;;;;;9.83;7.33;;;;;;;;;;6337927;22;20406;-91
2023/07/25 16:48:09;;;;;;;8.80;3.13;;;;;;;;;;6328161;22;20400;-90
2023/07/25 16:50:36;;;;;;;3.20;2.43;;;22.00;99.90;;;;;;6330708;22;20425;-90
2023/07/25 16:53:05;;;;;;;7.60;3.30;;;;;;;;;;6327338;22;20437;-88
2023/07/25 16:55:32;;;;;;;5.83;3.50;;;;;;;;;;6319255;22;20425;-91
2023/07/25 16:57:59;;;;;;;3.73;3.30;;;21.10;99.90;;;;;;6330096;22;20433;-90
2023/07/25 17:00:28;;;;;;;3.03;2.77;;;20.90;99.90;;;;;;6335772;22;20416;-90
2023/07/25 17:02:55;;;;;;;5.47;4.30;;;;;;;;;;6320905;22;20466;-90
2023/07/25 17:05:22;;;;;;;5.47;3.10;;;;;;;;;;6316829;22;20415;-91
2023/07/25 17:07:49;;;;;;;5.47;3.30;;;;;;;;;;6320656;22;20400;-91
2023/07/25 17:10:16;;;;;;;4.77;4.10;;;20.90;99.90;;;;;;6325897;22;20416;-92
2023/07/25 17:12:44;;;;;;;4.27;3.47;;;;;;;;;;6336234;22;20415;-88
2023/07/25 17:15:11;;;;;;;4.23;3.90;;;;;;;;;;6337247;22;20396;-88
2023/07/25 17:17:39;;;;;;;4.93;3.30;;;20.60;99.90;;;;;;6337233;22;20399;-88
2023/07/25 17:20:08;;;;;;;7.83;3.70;;;;;;;;;;6329528;22;20392;-89
2023/07/25 17:22:36;;;;;;;5.57;4.13;;;;;;;;;;6326257;22;20447;-91
2023/07/25 17:25:04;;;;;;;5.00;4.20;;;20.60;1.00;;;;;;6328511;22;20894;-90
2023/07/25 17:27:32;;;;;;;5.43;2.57;;;;;;;;;;6320208;22;20510;-89
2023/07/25 17:29:58;;;;;;;5.47;2.53;;;20.60;99.90;;;;;;6320056;22;20433;-90
2023/07/25 17:32:26;;;;;;;3.33;2.70;;;;;;;;;;6327109;22;20423;-90
2023/07/25 17:34:55;;;;;;;8.23;3.37;;;20.30;99.90;;;;;;6332920;22;20499;-89
2023/07/25 17:37:22;;;;;;;4.20;2.87;;;;;;;;;;6336670;22;20396;-90
2023/07/25 17:39:49;;;;;;;4.67;3.30;;;20.20;99.90;;;;;;6332790;22;20408;-89
2023/07/25 17:42:16;;;;;;;3.60;3.30;;;;;;;;;;6330802;22;20428;-90
2023/07/25 17:44:43;;;;;;;2.40;2.20;;;;;;;;;;6330183;22;20423;-90
2023/07/25 17:47:10;;;;;;;3.60;2.80;;;20.20;99.90;;;;;;6325012;22;20426;-90
2023/07/25 17:49:37;;;;;;;4.80;2.60;;;;;;;;;;6320264;22;20480;-90
2023/07/25 17:52:06;;;;;;;4.30;3.53;;;;;;;;;;6319753;22;20461;-89
2023/07/25 17:54:34;;;;;;;3.00;2.70;;;;;;;;;;6293359;22;20814;-90
2023/07/25 17:57:03;;;;;;;3.33;2.60;;;;;;;;;;6299403;22;20847;-89
2023/07/25 17:59:30;;;;;;;4.30;3.50;;;;;;;;;;6287732;22;20412;-89
2023/07/25 18:01:57;;;;;;;5.10;3.20;;;19.90;99.90;;;;;;6286389;22;20444;-90
2023/07/25 18:04:24;;;;;;;6.53;2.60;;;20.00;99.90;;;;;;6286643;22;20432;-90
2023/07/25 18:06:54;;;;;;;3.77;2.53;;;19.70;1.00;;;;;;6286961;22;20731;-90
2023/07/25 18:09:22;;;;;;;2.80;2.60;;;;;;;;;;6293280;22;20389;-89
2023/07/25 18:11:50;;;;;;;2.97;2.27;;;;;;;;;;6299759;22;20439;-90
2023/07/25 18:14:17;;;;;;;4.93;2.67;;;;;;;;;;6298923;22;20421;-89
2023/07/25 18:16:44;;;;;;;5.80;3.07;;;;;;;;;;6297345;22;20412;-90
2023/07/25 18:19:11;;;;;;;4.47;3.53;;;;;;;;;;6293452;22;20401;-90
2023/07/25 18:21:38;;;;;;;4.77;3.20;;;19.60;99.90;;;;;;6295031;22;20416;-89
2023/07/25 18:24:06;;;;;;;6.10;3.60;;;;;;;;;;6294432;22;20435;-89
2023/07/25 18:26:34;;;;;;;5.20;3.80;;;;;;;;;;6297031;22;20911;-89
2023/07/25 18:29:02;;;;;;;4.03;3.43;;;;;;;;;;6293819;22;20494;-90
2023/07/25 18:31:29;;;;;;;2.60;2.40;;;19.40;99.90;;;;;;6290285;22;20413;-89
2023/07/25 18:33:56;;;;;;;3.33;2.43;;;;;;;;;;6289501;22;20432;-90
2023/07/25 18:36:23;;;;;;;3.53;2.60;;;19.40;99.90;;;;;;6292063;22;20413;-91
2023/07/25 18:38:50;;;;;;;3.73;2.70;;;;;;;;;;6298270;22;20408;-89
2023/07/25 18:41:17;;;;;;;5.73;4.00;;;;;;;;;;6288344;22;20436;-90
2023/07/25 18:43:48;;;;;;;7.03;3.40;;;;;;;;;;6289391;22;20444;-90
2023/07/25 18:46:16;;;;;;;3.43;2.50;;;;;;;;;;6292277;22;20790;-89
2023/07/25 18:48:42;;;;;;;3.37;2.67;;;19.20;99.90;;;;;;6289838;22;20408;-90
2023/07/25 18:51:10;;;;;;;3.63;2.67;;;19.30;99.90;;;;;;6292599;22;20420;-91
2023/07/25 18:53:38;;;;;;;6.90;3.13;;;19.10;17.00;;;;;;6294979;22;20433;-91
2023/07/25 18:56:06;;;;;;;5.17;3.10;;;;;;;;;;6290456;22;20405;-89
2023/07/25 18:58:33;;;;;;;4.07;3.00;;;;;;;;;;6287776;22;20401;-90
2023/07/25 19:01:01;;;;;;;2.90;2.70;;;18.80;25.20;;;;;;6286708;22;20405;-90
2023/07/25 19:03:28;;;;;;;6.10;4.87;;;19.00;1.00;;;;;;6287142;22;20450;-90
2023/07/25 19:05:55;;;;;;;3.60;3.23;;;18.90;99.90;;;;;;6287553;22;20401;-90
2023/07/25 19:08:22;;;;;;;5.97;2.33;;;19.00;99.90;;;;;;6299437;22;20401;-90
2023/07/25 19:10:49;;;;;;;4.53;3.30;;;;;;;;;;6300228;22;20526;-90
2023/07/25 19:13:17;;;;;;;3.43;2.10;;;;;;;;;;6292565;22;20501;-89
2023/07/25 19:15:44;;;;;;;4.30;3.17;;;;;;;;;;6296493;22;20412;-90
2023/07/25 19:18:13;;;;;;;3.60;2.37;;;18.80;99.90;;;;;;6294250;22;20400;-90
2023/07/25 19:20:40;;;;;;;4.83;2.70;;;;;;;;;;6288064;22;20412;-89
2023/07/25 19:23:07;;;;;;;2.93;2.63;;;18.80;99.90;;;;;;6287680;22;20444;-90
2023/07/25 19:25:33;;;;;;;4.93;3.03;;;18.90;35.90;;;;;;6305319;22;20896;-89
2023/07/25 19:28:01;;;;;;;3.17;2.57;;;19.00;1.00;;;;;;6305524;22;20388;-87
2023/07/25 19:30:28;;;;;;;3.60;3.10;;;18.80;1.00;;;;;;6305472;22;20388;-89
2023/07/25 19:32:56;;;;;;;7.80;2.60;;;;;;;;;;6305236;22;20397;-88
2023/07/25 19:35:24;;;;;;;4.00;2.93;;;18.70;1.00;;;;;;6303295;22;20434;-89
2023/07/25 19:37:51;;;;;;;3.20;2.40;;;18.70;1.00;;;;;;6295506;22;20404;-89
2023/07/25 19:40:18;;;;;;;5.43;3.20;;;;;;;;;;6288158;22;20400;-90
2023/07/25 19:42:45;;;;;;;3.67;2.17;;;;;;;;;;6285311;22;20463;-90
2023/07/25 19:45:12;;;;;;;3.90;2.80;;;;;;;;;;6286218;22;20906;-90
2023/07/25 19:47:40;;;;;;;3.50;3.20;;;;;;;;;;6286189;22;20479;-90